Weather at Bucharest Băneasa Aurel Vlaicu International Airport

Public forecast

Using degrees Celsius for public forecast. Weather courtesy of forecast.io.

Current aviation weather report (METAR) for Bucharest Băneasa Aurel Vlaicu International Airport

2024/05/28 22:00 (retrieved 10 minutes ago)

LRBS 282200Z 29003KT CAVOK 13/11 Q1013 NOSIG

Aviation forecast (TAF) for Bucharest Băneasa Aurel Vlaicu International Airport

2024/05/28 18:33 (retrieved 4 hours ago)

TAF TAF LRBS 281700Z 2818/2918 VRB04KT 9999 FEW040CB PROB30 TEMPO 2818/2820 5000 -SHRA BECMG 2820/2822 NSC PROB30 TEMPO 2823/2904 BKN010 TEMPO 2904/2910 5000 SHRA BKN010 SCT040CB TEMPO 2914/2918 VRB20KT 5000 TSRA SCT015 BKN030CB